Time;durP1;ratioP1;P1;durP2;ratioP2;P2;SDS_P1;SDS_P2;PMS_P1;PMS_P2;Temp;Humidity;BMP_temperature;BMP_pressure;BME280_temperature;BME280_humidity;BME280_pressure;Samples;Min_cycle;Max_cycle;Signal;HPM_P1;HPM_P2
2022/12/06 00:01:08;;;;;;;5.85;3.60;;;5.60;99.90;;;;;;5028541;28;20537;-83
2022/12/06 00:03:36;;;;;;;6.97;4.18;;;5.60;99.90;;;;;;5028919;28;20411;-83
2022/12/06 00:06:08;;;;;;;6.50;3.28;;;5.60;99.90;;;;;;5025571;28;20497;-83
2022/12/06 00:08:36;;;;;;;7.53;4.20;;;5.60;99.90;;;;;;5027371;28;20034;-83
2022/12/06 00:11:18;;;;;;;9.60;4.75;;;5.70;99.90;;;;;;5028485;28;20494;-83
2022/12/06 00:13:45;;;;;;;8.77;4.78;;;5.70;99.90;;;;;;5028960;28;20483;-83
2022/12/06 00:16:14;;;;;;;5.63;3.88;;;5.70;99.90;;;;;;5029519;28;20037;-82
2022/12/06 00:18:43;;;;;;;7.40;4.20;;;5.70;99.90;;;;;;5045782;28;20691;-85
2022/12/06 00:21:13;;;;;;;5.50;3.65;;;5.70;99.90;;;;;;5054722;28;20033;-83
2022/12/06 00:23:42;;;;;;;6.22;3.83;;;5.70;99.90;;;;;;5030603;28;20033;-83
2022/12/06 00:26:09;;;;;;;7.40;4.65;;;5.70;99.90;;;;;;5059751;28;20037;-83
2022/12/06 00:28:36;;;;;;;9.13;5.15;;;5.70;99.90;;;;;;5027925;28;20499;-84
2022/12/06 00:31:06;;;;;;;7.63;4.38;;;5.70;99.90;;;;;;5062486;28;20040;-83
2022/12/06 00:33:33;;;;;;;6.53;4.57;;;5.70;99.90;;;;;;5042792;28;20049;-84
2022/12/06 00:36:02;;;;;;;7.55;5.10;;;5.70;99.90;;;;;;5029862;28;20284;-84
2022/12/06 00:38:29;;;;;;;7.95;5.10;;;5.70;99.90;;;;;;5039822;28;20037;-83
2022/12/06 00:40:59;;;;;;;5.25;4.00;;;5.70;99.90;;;;;;5053478;28;20423;-85
2022/12/06 00:43:26;;;;;;;5.40;3.72;;;5.70;99.90;;;;;;5027654;28;20045;-85
2022/12/06 00:45:53;;;;;;;5.43;3.50;;;5.70;99.90;;;;;;5028129;28;20327;-84
2022/12/06 00:48:19;;;;;;;4.85;3.80;;;5.70;99.90;;;;;;5024763;28;20033;-84
2022/12/06 00:50:45;;;;;;;5.88;4.20;;;5.70;99.90;;;;;;5044177;28;20426;-84
2022/12/06 00:53:12;;;;;;;5.63;3.95;;;5.70;99.90;;;;;;5028504;28;20401;-85
2022/12/06 00:55:38;;;;;;;6.35;5.22;;;5.70;99.90;;;;;;5061041;28;20387;-84
2022/12/06 00:58:04;;;;;;;7.07;5.13;;;5.70;99.90;;;;;;5015685;28;20033;-84
2022/12/06 01:00:31;;;;;;;6.55;5.47;;;5.70;99.90;;;;;;5051932;28;20053;-84
2022/12/06 01:02:57;;;;;;;6.88;5.38;;;5.70;99.90;;;;;;5033262;28;20033;-83
2022/12/06 01:05:24;;;;;;;7.22;5.07;;;5.70;99.90;;;;;;5043681;28;20030;-83
2022/12/06 01:07:50;;;;;;;6.03;4.28;;;5.70;99.90;;;;;;5046330;28;20329;-84
2022/12/06 01:10:16;;;;;;;6.35;4.70;;;5.70;99.90;;;;;;5028467;28;20387;-84
2022/12/06 01:12:43;;;;;;;8.90;6.55;;;5.60;99.90;;;;;;5045597;28;20041;-83
2022/12/06 01:15:10;;;;;;;8.98;6.65;;;5.60;99.90;;;;;;5045583;28;20452;-85
2022/12/06 01:17:36;;;;;;;8.05;4.70;;;5.60;99.90;;;;;;5042016;28;20060;-83
2022/12/06 01:20:05;;;;;;;10.45;8.02;;;5.60;99.90;;;;;;5010448;28;20045;-82
2022/12/06 01:22:32;;;;;;;15.40;9.38;;;5.70;99.90;;;;;;5022414;28;20472;-84
2022/12/06 01:24:58;;;;;;;10.90;6.75;;;5.70;99.90;;;;;;5028684;28;20049;-85
2022/12/06 01:27:25;;;;;;;10.50;6.35;;;5.70;99.90;;;;;;5037324;28;20353;-83
2022/12/06 01:29:52;;;;;;;11.57;6.93;;;5.70;99.90;;;;;;5034343;28;20034;-84
2022/12/06 01:32:18;;;;;;;8.88;6.30;;;5.70;99.90;;;;;;5027624;28;20040;-84
2022/12/06 01:34:44;;;;;;;12.98;9.20;;;5.70;99.90;;;;;;5039831;28;20378;-84
2022/12/06 01:37:11;;;;;;;13.98;7.88;;;5.70;99.90;;;;;;5054014;28;20024;-84
2022/12/06 01:39:37;;;;;;;13.30;7.78;;;5.70;99.90;;;;;;5026181;28;20041;-86
2022/12/06 01:42:04;;;;;;;10.57;7.15;;;5.70;99.90;;;;;;5058992;28;20029;-85
2022/12/06 01:44:39;;;;;;;11.00;6.50;;;5.70;99.90;;;;;;5043222;28;20064;-86
2022/12/06 01:47:22;;;;;;;7.47;5.80;;;5.70;99.90;;;;;;5034876;28;20025;-85
2022/12/06 01:50:08;;;;;;;;;;;5.70;99.90;;;;;;5027182;28;20045;-85
2022/12/06 01:52:51;;;;;;;15.10;6.43;;;5.70;99.90;;;;;;5026910;28;19909;-83
2022/12/06 01:55:21;;;;;;;12.43;5.95;;;5.60;99.90;;;;;;5036466;28;20028;-85
2022/12/06 01:57:48;;;;;;;11.23;6.80;;;5.60;99.90;;;;;;5047908;28;20030;-84
2022/12/06 02:00:15;;;;;;;9.55;6.15;;;5.60;99.90;;;;;;5026301;28;20033;-84
2022/12/06 02:02:42;;;;;;;11.02;7.60;;;5.60;99.90;;;;;;5044105;28;20395;-86
2022/12/06 02:05:09;;;;;;;13.20;7.78;;;5.60;99.90;;;;;;5041254;28;20052;-85
2022/12/06 02:07:36;;;;;;;11.30;7.22;;;5.70;99.90;;;;;;5024948;28;20026;-85
2022/12/06 02:10:03;;;;;;;11.50;6.60;;;5.60;99.90;;;;;;5034850;28;20040;-84
2022/12/06 02:12:29;;;;;;;9.00;5.68;;;5.70;99.90;;;;;;5049956;28;20865;-86
2022/12/06 02:14:56;;;;;;;7.80;5.45;;;5.70;99.90;;;;;;5029454;28;20041;-85
2022/12/06 02:17:34;;;;;;;12.95;6.68;;;5.70;99.90;;;;;;5045334;28;20045;-85
2022/12/06 02:20:19;;;;;;;9.75;6.20;;;5.70;99.90;;;;;;5030277;28;20636;-85
2022/12/06 02:23:04;;;;;;;10.25;5.63;;;5.70;99.90;;;;;;5032890;28;20376;-86
2022/12/06 02:26:09;;;;;;;8.93;5.00;;;5.70;99.90;;;;;;5052276;28;20386;-84
2022/12/06 02:28:57;;;;;;;8.45;5.43;;;5.70;99.90;;;;;;5031589;28;20473;-85
2022/12/06 02:31:30;;;;;;;7.82;5.53;;;5.70;99.90;;;;;;5032950;28;20060;-86
2022/12/06 02:34:08;;;;;;;10.27;5.68;;;5.70;99.90;;;;;;5045862;28;20049;-85
2022/12/06 02:36:44;;;;;;;6.68;4.40;;;5.80;99.90;;;;;;5025094;28;20036;-86
2022/12/06 02:39:18;;;;;;;10.02;5.13;;;5.80;99.90;;;;;;5045761;28;20040;-84
2022/12/06 02:41:58;;;;;;;8.40;4.93;;;5.70;99.90;;;;;;5044972;28;20041;-85
2022/12/06 02:44:39;;;;;;;7.95;5.00;;;5.80;99.90;;;;;;5047380;28;20040;-84
2022/12/06 02:47:07;;;;;;;11.38;5.75;;;5.80;99.90;;;;;;5028533;28;20040;-85
2022/12/06 02:49:36;;;;;;;7.57;5.55;;;5.80;99.90;;;;;;5063965;28;20033;-85
2022/12/06 02:52:03;;;;;;;12.35;6.85;;;5.80;99.90;;;;;;5029768;28;20426;-84
2022/12/06 02:54:31;;;;;;;11.15;6.57;;;5.80;99.90;;;;;;5053457;28;20042;-85
2022/12/06 02:56:57;;;;;;;12.50;6.65;;;5.80;99.90;;;;;;5038722;28;20049;-84
2022/12/06 02:59:23;;;;;;;9.05;5.47;;;5.70;99.90;;;;;;5036263;28;20460;-83
2022/12/06 03:01:55;;;;;;;11.23;5.95;;;5.80;99.90;;;;;;5040684;28;20033;-84
2022/12/06 03:04:44;;;;;;;12.07;6.47;;;5.80;99.90;;;;;;5062709;28;20033;-85
2022/12/06 03:07:23;;;;;;;13.77;6.28;;;5.80;99.90;;;;;;5021783;28;20052;-85
2022/12/06 03:10:10;;;;;;;10.95;7.30;;;5.80;99.90;;;;;;5026170;28;20032;-85
2022/12/06 03:13:00;;;;;;;9.25;6.18;;;5.80;99.90;;;;;;5038541;28;20021;-84
2022/12/06 03:15:50;;;;;;;12.88;6.50;;;5.70;99.90;;;;;;5048704;28;20041;-85
2022/12/06 03:18:28;;;;;;;11.07;5.63;;;5.80;99.90;;;;;;5027146;28;20444;-84
2022/12/06 03:21:07;;;;;;;11.75;5.43;;;5.70;99.90;;;;;;5051789;28;20466;-85
2022/12/06 03:23:40;;;;;;;15.77;6.78;;;5.70;99.90;;;;;;5044416;28;20087;-83
2022/12/06 03:26:12;;;;;;;14.02;7.00;;;5.70;99.90;;;;;;5028050;28;20360;-84
2022/12/06 03:28:41;;;;;;;15.05;6.47;;;5.70;99.90;;;;;;5026290;28;20037;-84
2022/12/06 03:31:12;;;;;;;12.75;7.25;;;5.70;99.90;;;;;;5045636;28;20037;-84
2022/12/06 03:34:10;;;;;;;19.27;8.60;;;5.70;99.90;;;;;;5046973;28;20711;-85
2022/12/06 03:36:39;;;;;;;11.60;6.45;;;5.70;99.90;;;;;;5035077;28;20041;-84
2022/12/06 03:39:07;;;;;;;16.23;8.15;;;5.70;99.90;;;;;;5025252;28;20040;-81
2022/12/06 03:41:42;;;;;;;13.27;6.53;;;5.60;99.90;;;;;;5030719;28;20040;-83
2022/12/06 03:44:08;;;;;;;15.07;7.50;;;5.60;99.90;;;;;;5031522;28;20041;-85
2022/12/06 03:46:39;;;;;;;10.93;6.57;;;5.60;99.90;;;;;;4994589;28;20034;-84
2022/12/06 03:49:13;;;;;;;20.55;8.23;;;5.60;99.90;;;;;;5053240;28;20029;-85
2022/12/06 03:51:41;;;;;;;14.48;7.75;;;5.60;99.90;;;;;;5029457;28;20041;-86
2022/12/06 03:54:08;;;;;;;11.82;7.18;;;5.60;99.90;;;;;;5028793;28;20030;-86
2022/12/06 03:56:36;;;;;;;13.85;7.50;;;5.60;99.90;;;;;;5032395;28;20036;-84
2022/12/06 03:59:10;;;;;;;19.00;7.88;;;5.60;99.90;;;;;;5031654;28;20044;-86
2022/12/06 04:01:37;;;;;;;17.55;8.50;;;5.50;99.90;;;;;;5052361;28;20037;-86
2022/12/06 04:04:04;;;;;;;10.77;6.50;;;5.50;99.90;;;;;;5023512;28;20036;-85
2022/12/06 04:06:30;;;;;;;19.35;8.32;;;5.60;99.90;;;;;;5029269;28;20037;-85
2022/12/06 04:09:51;;;;;;;13.50;7.63;;;5.50;99.90;;;;;;5045896;28;20034;-84
2022/12/06 04:11:43;;;;;;;10.75;7.70;;;5.60;99.90;;;;;;5029278;28;20041;-84
2022/12/06 04:14:10;;;;;;;12.60;7.00;;;5.60;99.90;;;;;;5009611;28;20046;-82
2022/12/06 04:19:21;;;;;;;13.75;7.22;;;5.50;99.90;;;;;;5010981;28;20491;-82
2022/12/06 04:24:32;;;;;;;9.00;5.75;;;5.50;99.90;;;;;;5028896;28;20041;-85
2022/12/06 04:40:46;;;;;;;11.70;5.32;;;5.40;99.90;;;;;;5027656;28;20472;-86
2022/12/06 04:45:57;;;;;;;9.32;5.45;;;5.30;99.90;;;;;;5038865;28;20048;-86
2022/12/06 04:48:24;;;;;;;9.82;5.63;;;5.30;99.90;;;;;;5011255;28;20468;-86
2022/12/06 04:50:50;;;;;;;9.50;5.47;;;5.30;99.90;;;;;;5029736;28;20056;-87
2022/12/06 04:53:16;;;;;;;10.05;5.45;;;5.30;99.90;;;;;;5028721;28;20068;-86
2022/12/06 04:55:47;;;;;;;14.52;6.45;;;5.30;99.90;;;;;;5029449;28;20041;-86
2022/12/06 04:58:14;;;;;;;6.22;4.20;;;5.40;99.90;;;;;;5017310;28;20519;-85
2022/12/06 05:00:44;;;;;;;12.30;5.32;;;5.30;99.90;;;;;;5053576;28;20387;-87
2022/12/06 05:03:13;;;;;;;8.50;4.85;;;5.30;99.90;;;;;;5012349;28;20061;-82
2022/12/06 05:05:41;;;;;;;10.40;5.38;;;5.40;99.90;;;;;;5046104;28;20032;-86
2022/12/06 05:08:08;;;;;;;10.98;5.03;;;5.40;99.90;;;;;;5030543;28;20033;-86
2022/12/06 05:10:35;;;;;;;11.02;5.13;;;5.40;99.90;;;;;;5038218;28;20033;-86
2022/12/06 05:13:01;;;;;;;10.15;5.57;;;5.40;99.90;;;;;;5033970;28;20376;-86
2022/12/06 05:15:28;;;;;;;8.82;4.50;;;5.30;99.90;;;;;;5032020;28;20032;-86
2022/12/06 05:17:55;;;;;;;7.25;4.85;;;5.40;99.90;;;;;;5025230;28;20054;-86
2022/12/06 05:20:21;;;;;;;7.80;4.63;;;5.40;99.90;;;;;;5045244;28;20513;-86
2022/12/06 05:22:48;;;;;;;7.97;5.03;;;5.30;99.90;;;;;;5035620;28;20463;-86
2022/12/06 05:25:15;;;;;;;8.93;4.38;;;5.30;99.90;;;;;;5052163;28;20034;-86
2022/12/06 05:27:42;;;;;;;11.90;5.60;;;5.30;99.90;;;;;;5034595;28;20025;-87
2022/12/06 05:30:09;;;;;;;7.88;4.75;;;5.30;99.90;;;;;;5043400;28;20052;-85
2022/12/06 05:32:37;;;;;;;8.25;4.45;;;5.30;99.90;;;;;;5038448;28;20057;-85
2022/12/06 05:35:05;;;;;;;7.03;4.60;;;5.30;99.90;;;;;;5027110;28;20040;-87
2022/12/06 05:37:31;;;;;;;11.15;5.18;;;5.30;99.90;;;;;;5033598;28;20029;-88
2022/12/06 05:39:57;;;;;;;11.35;4.82;;;5.30;99.90;;;;;;5028331;28;20048;-85
2022/12/06 05:42:24;;;;;;;8.85;4.63;;;5.30;99.90;;;;;;5049311;28;20379;-83
2022/12/06 05:44:50;;;;;;;7.57;4.50;;;5.30;99.90;;;;;;5056309;28;20041;-87
2022/12/06 05:47:16;;;;;;;8.60;4.50;;;5.30;99.90;;;;;;5021987;28;20041;-86
2022/12/06 05:49:43;;;;;;;8.77;4.68;;;5.30;99.90;;;;;;5022412;28;20241;-87
2022/12/06 05:52:09;;;;;;;7.68;4.15;;;5.30;99.90;;;;;;5027116;28;20037;-86
2022/12/06 05:54:35;;;;;;;7.25;4.60;;;5.30;99.90;;;;;;5033373;28;20029;-86
2022/12/06 05:57:02;;;;;;;7.03;4.85;;;5.20;99.90;;;;;;5031812;28;20042;-85
2022/12/06 05:59:28;;;;;;;9.05;4.43;;;5.30;99.90;;;;;;5027282;28;20045;-85
2022/12/06 06:01:55;;;;;;;6.28;3.70;;;5.20;99.90;;;;;;5043667;28;20490;-85
2022/12/06 06:04:21;;;;;;;8.40;4.28;;;5.30;99.90;;;;;;5041951;28;20155;-85
2022/12/06 06:06:47;;;;;;;9.13;4.15;;;5.20;99.90;;;;;;5029171;28;20044;-85
2022/12/06 06:09:14;;;;;;;7.32;4.10;;;5.20;99.90;;;;;;5010881;28;20045;-86
2022/12/06 06:11:40;;;;;;;9.13;5.30;;;5.20;99.90;;;;;;5026496;28;20423;-83
2022/12/06 06:14:06;;;;;;;12.23;4.97;;;5.20;99.90;;;;;;5041782;28;20047;-85
2022/12/06 06:16:33;;;;;;;8.70;5.30;;;5.20;99.90;;;;;;5031135;28;20180;-84
2022/12/06 06:19:00;;;;;;;8.50;4.68;;;5.20;99.90;;;;;;5041847;28;20026;-85
2022/12/06 06:21:27;;;;;;;9.88;4.68;;;5.10;99.90;;;;;;5045216;28;20036;-85
2022/12/06 06:23:55;;;;;;;10.05;5.80;;;5.10;99.90;;;;;;5030698;28;20038;-83
2022/12/06 06:26:22;;;;;;;9.60;5.68;;;5.10;99.90;;;;;;5033933;28;20036;-86
2022/12/06 06:28:48;;;;;;;9.07;4.50;;;5.10;99.90;;;;;;5045465;28;20041;-86
2022/12/06 06:31:15;;;;;;;7.13;4.25;;;5.10;99.90;;;;;;5023361;28;20033;-85
2022/12/06 06:33:41;;;;;;;10.23;4.95;;;5.10;99.90;;;;;;5032528;28;20037;-82
2022/12/06 06:36:08;;;;;;;8.70;4.68;;;5.10;99.90;;;;;;5031195;28;20052;-82
2022/12/06 06:38:34;;;;;;;7.13;3.22;;;5.10;99.90;;;;;;5043415;28;20036;-84
2022/12/06 06:41:02;;;;;;;8.80;4.43;;;5.10;99.90;;;;;;5050714;28;20510;-84
2022/12/06 06:43:29;;;;;;;11.27;5.43;;;5.10;99.90;;;;;;5046724;28;20033;-85
2022/12/06 06:45:57;;;;;;;7.25;3.75;;;5.10;99.90;;;;;;5024828;28;20060;-83
2022/12/06 06:48:25;;;;;;;13.27;6.68;;;5.20;99.90;;;;;;5032263;28;20046;-85
2022/12/06 06:50:52;;;;;;;8.60;5.03;;;5.20;99.90;;;;;;5042973;28;20056;-86
2022/12/06 06:53:18;;;;;;;13.90;5.28;;;5.20;99.90;;;;;;5033304;28;20456;-86
2022/12/06 06:55:46;;;;;;;9.57;5.35;;;5.20;99.90;;;;;;5032844;28;20037;-82
2022/12/06 06:58:15;;;;;;;15.43;7.30;;;5.20;99.90;;;;;;5029156;28;20038;-83
2022/12/06 07:00:42;;;;;;;9.40;5.07;;;5.20;99.90;;;;;;5046931;28;20029;-85
2022/12/06 07:03:14;;;;;;;16.38;6.55;;;5.20;99.90;;;;;;5040878;28;20040;-84
2022/12/06 07:05:42;;;;;;;10.65;5.10;;;5.20;99.90;;;;;;5060100;28;20037;-83
2022/12/06 07:08:09;;;;;;;15.10;5.97;;;5.20;99.90;;;;;;5055195;28;20494;-84
2022/12/06 07:10:35;;;;;;;9.80;4.55;;;5.20;99.90;;;;;;5036467;28;20033;-82
2022/12/06 07:13:02;;;;;;;11.30;5.72;;;5.20;99.90;;;;;;5044715;28;20044;-84
2022/12/06 07:15:28;;;;;;;9.52;5.05;;;5.20;99.90;;;;;;5023478;28;20037;-83
2022/12/06 07:17:54;;;;;;;10.52;5.30;;;5.20;99.90;;;;;;5028952;28;20049;-83
2022/12/06 07:20:20;;;;;;;9.27;5.10;;;5.30;99.90;;;;;;5035870;28;20049;-82
2022/12/06 07:22:47;;;;;;;10.95;5.07;;;5.30;99.90;;;;;;5039660;28;20041;-83
2022/12/06 07:25:13;;;;;;;10.32;5.40;;;5.30;99.90;;;;;;5028314;28;20059;-81
2022/12/06 07:27:39;;;;;;;15.38;6.93;;;5.30;99.90;;;;;;5034746;28;20599;-82
2022/12/06 07:30:08;;;;;;;12.48;6.03;;;5.30;99.90;;;;;;5050542;28;20032;-81
2022/12/06 07:32:35;;;;;;;14.45;7.82;;;5.30;99.90;;;;;;5046303;28;20037;-84
2022/12/06 07:35:03;;;;;;;13.90;7.13;;;5.30;99.90;;;;;;5035728;28;20146;-83
2022/12/06 07:37:30;;;;;;;10.77;7.50;;;5.30;99.90;;;;;;5035185;28;20032;-84
2022/12/06 07:39:56;;;;;;;11.82;8.88;;;5.30;99.90;;;;;;4996375;28;20034;-85
2022/12/06 07:45:10;;;;;;;11.10;7.05;;;5.30;99.90;;;;;;5027242;28;20418;-84
2022/12/06 07:47:42;;;;;;;9.98;5.30;;;5.30;99.90;;;;;;5010606;28;20037;-84
2022/12/06 07:50:15;;;;;;;8.90;5.60;;;5.30;99.90;;;;;;5024796;28;20025;-83
2022/12/06 07:52:41;;;;;;;;;;;5.30;99.90;;;;;;5028908;28;20063;-84
2022/12/06 07:55:09;;;;;;;10.07;7.45;;;5.30;99.90;;;;;;5028443;28;19905;-84
2022/12/06 07:57:37;;;;;;;12.15;7.55;;;5.30;99.90;;;;;;5025657;28;20341;-83
2022/12/06 08:00:05;;;;;;;10.20;5.38;;;5.30;99.90;;;;;;5044173;28;20033;-81
2022/12/06 08:02:38;;;;;;;9.30;6.45;;;5.30;99.90;;;;;;5031670;28;20037;-84
2022/12/06 08:05:04;;;;;;;8.98;5.38;;;5.30;99.90;;;;;;5033737;28;20048;-84
2022/12/06 08:07:31;;;;;;;6.57;4.80;;;5.30;99.90;;;;;;5012749;28;20072;-83
2022/12/06 08:09:57;;;;;;;7.63;4.43;;;5.30;99.90;;;;;;5042918;28;20037;-84
2022/12/06 08:12:24;;;;;;;8.88;4.55;;;5.30;99.90;;;;;;5029631;28;20407;-83
2022/12/06 08:14:50;;;;;;;9.73;5.45;;;5.30;99.90;;;;;;5008217;28;20025;-83
2022/12/06 08:17:16;;;;;;;8.38;4.63;;;5.30;99.90;;;;;;5026343;28;20052;-82
2022/12/06 08:19:42;;;;;;;7.85;4.55;;;5.30;99.90;;;;;;5011835;28;20489;-84
2022/12/06 08:22:10;;;;;;;7.90;4.57;;;5.40;99.90;;;;;;5046141;28;20595;-85
2022/12/06 08:24:37;;;;;;;5.40;3.83;;;5.40;99.90;;;;;;5023992;28;20564;-80
2022/12/06 08:27:03;;;;;;;8.63;5.30;;;5.40;99.90;;;;;;5025707;28;20025;-83
2022/12/06 08:29:29;;;;;;;6.50;4.13;;;5.40;99.90;;;;;;5027527;28;20041;-83
2022/12/06 08:31:55;;;;;;;6.75;3.63;;;5.40;99.90;;;;;;5009546;28;20380;-85
2022/12/06 08:34:22;;;;;;;8.38;4.10;;;5.30;99.90;;;;;;5044593;28;20030;-83
2022/12/06 08:36:48;;;;;;;8.10;4.70;;;5.30;99.90;;;;;;5009852;28;20025;-81
2022/12/06 08:39:14;;;;;;;6.32;4.10;;;5.20;99.90;;;;;;5048094;28;20026;-86
2022/12/06 08:42:01;;;;;;;8.23;4.30;;;5.10;99.90;;;;;;5026338;28;20363;-86
2022/12/06 08:44:29;;;;;;;9.38;4.15;;;5.00;99.90;;;;;;5013785;28;20021;-82
2022/12/06 08:46:57;;;;;;;6.53;3.97;;;4.90;99.90;;;;;;5048499;28;20038;-81
2022/12/06 08:49:24;;;;;;;7.97;4.25;;;4.80;99.90;;;;;;5034234;28;20375;-83
2022/12/06 08:51:51;;;;;;;6.40;4.93;;;4.70;99.90;;;;;;5028040;28;20044;-81
2022/12/06 08:54:21;;;;;;;8.77;4.47;;;4.70;99.90;;;;;;5027851;28;20383;-85
2022/12/06 08:56:49;;;;;;;6.35;2.97;;;4.60;99.90;;;;;;5027790;28;20038;-83
2022/12/06 08:59:15;;;;;;;6.45;3.92;;;4.60;99.90;;;;;;5007572;28;20037;-84
2022/12/06 09:01:43;;;;;;;4.85;3.58;;;4.60;99.90;;;;;;5036541;28;20029;-84
2022/12/06 09:04:10;;;;;;;5.50;3.60;;;4.60;99.90;;;;;;5027365;28;20033;-84
2022/12/06 09:06:39;;;;;;;5.55;3.58;;;4.50;99.90;;;;;;5023344;28;20032;-84
2022/12/06 09:09:07;;;;;;;4.60;3.03;;;4.60;99.90;;;;;;5050485;28;20350;-83
2022/12/06 09:11:34;;;;;;;7.57;3.17;;;4.60;99.90;;;;;;5027104;28;20025;-84
2022/12/06 09:14:00;;;;;;;4.82;3.03;;;4.60;99.90;;;;;;5030943;28;20793;-82
2022/12/06 09:16:27;;;;;;;9.18;5.30;;;4.60;99.90;;;;;;5036063;28;20044;-84
2022/12/06 09:18:53;;;;;;;5.80;3.95;;;4.70;99.90;;;;;;5022111;28;20025;-85
2022/12/06 09:21:24;;;;;;;8.93;4.97;;;4.70;99.90;;;;;;5024376;28;20036;-83
2022/12/06 09:23:54;;;;;;;10.38;6.03;;;4.70;99.90;;;;;;5023065;28;20037;-84
2022/12/06 09:26:21;;;;;;;9.68;4.95;;;4.80;99.90;;;;;;5024153;28;20056;-86
2022/12/06 09:28:49;;;;;;;5.60;3.75;;;4.80;99.90;;;;;;5012830;28;20669;-87
2022/12/06 09:31:16;;;;;;;5.53;3.63;;;4.80;99.90;;;;;;5027118;28;20037;-85
2022/12/06 09:33:43;;;;;;;6.55;4.63;;;4.90;99.90;;;;;;4995085;28;20037;-86
2022/12/06 09:36:27;;;;;;;7.55;4.30;;;5.00;99.90;;;;;;5026488;28;20042;-85
2022/12/06 09:39:04;;;;;;;10.43;4.35;;;5.00;99.90;;;;;;5051416;28;20048;-86
2022/12/06 09:41:44;;;;;;;6.47;3.28;;;5.10;99.90;;;;;;5027648;28;20088;-87
2022/12/06 09:44:35;;;;;;;4.78;3.15;;;5.30;99.90;;;;;;5027067;28;20038;-85
2022/12/06 09:47:10;;;;;;;4.78;2.92;;;5.50;99.90;;;;;;5023492;28;20091;-86
2022/12/06 09:49:51;;;;;;;3.97;2.13;;;5.70;99.90;;;;;;5020721;28;20053;-86
2022/12/06 09:52:36;;;;;;;4.90;2.25;;;6.00;99.90;;;;;;5042542;28;20541;-83
2022/12/06 09:55:16;;;;;;;5.20;1.77;;;6.30;99.90;;;;;;5027436;28;20033;-86
2022/12/06 09:57:53;;;;;;;2.80;1.33;;;6.60;99.90;;;;;;5019676;28;20468;-86
2022/12/06 10:00:22;;;;;;;2.05;1.02;;;6.90;99.90;;;;;;5031573;28;20047;-84
2022/12/06 10:03:28;;;;;;;5.38;1.50;;;7.10;99.90;;;;;;5023975;28;20506;-85
2022/12/06 10:06:00;;;;;;;3.45;0.90;;;7.30;99.90;;;;;;5028108;28;20200;-81
2022/12/06 10:08:57;;;;;;;3.60;1.48;;;7.40;99.90;;;;;;5043098;28;20029;-86
2022/12/06 10:11:39;;;;;;;3.28;0.85;;;7.60;99.90;;;;;;5033626;28;20041;-86
2022/12/06 10:14:20;;;;;;;3.05;1.02;;;7.90;99.90;;;;;;5026611;28;20498;-86
2022/12/06 10:17:17;;;;;;;1.10;0.70;;;8.10;99.90;;;;;;5028571;28;20092;-84
2022/12/06 10:20:32;;;;;;;3.08;1.35;;;8.20;99.90;;;;;;5012522;28;20049;-85
2022/12/06 10:23:24;;;;;;;2.65;1.40;;;8.00;99.90;;;;;;5022351;28;20046;-85
2022/12/06 10:26:12;;;;;;;4.07;1.20;;;7.70;99.90;;;;;;5016821;28;20055;-86
2022/12/06 10:28:58;;;;;;;6.22;1.80;;;7.30;99.90;;;;;;5011124;28;20038;-87
2022/12/06 10:31:52;;;;;;;5.90;1.70;;;7.10;99.90;;;;;;5026081;28;20495;-86
2022/12/06 10:34:41;;;;;;;6.65;1.65;;;6.90;99.90;;;;;;5040009;28;20040;-85
2022/12/06 10:37:24;;;;;;;2.92;1.45;;;6.70;99.90;;;;;;5019556;28;20042;-86
2022/12/06 10:39:52;;;;;;;;;;;6.50;99.90;;;;;;5026553;28;20040;-85
2022/12/06 10:42:46;;;;;;;6.20;1.50;;;6.40;99.90;;;;;;5013891;28;19931;-87
2022/12/06 10:48:27;;;;;;;4.80;1.85;;;6.20;99.90;;;;;;5021268;28;20033;-83
2022/12/06 10:51:02;;;;;;;4.68;1.50;;;6.10;99.90;;;;;;5032918;28;20029;-86
2022/12/06 10:53:33;;;;;;;3.33;1.38;;;6.10;99.90;;;;;;5031227;28;20034;-83
2022/12/06 10:56:13;;;;;;;2.13;1.40;;;6.10;99.90;;;;;;5019505;28;20436;-84
2022/12/06 10:58:52;;;;;;;6.72;1.83;;;6.10;99.90;;;;;;5002612;28;20045;-85
2022/12/06 11:01:27;;;;;;;3.53;1.55;;;6.10;99.90;;;;;;5004723;28;20707;-84
2022/12/06 11:04:03;;;;;;;2.65;1.00;;;6.10;99.90;;;;;;5006966;28;20503;-85
2022/12/06 11:06:59;;;;;;;4.75;1.95;;;6.10;99.90;;;;;;5019824;28;20033;-85
2022/12/06 11:09:39;;;;;;;12.52;3.50;;;6.10;99.90;;;;;;5018343;28;20037;-85
2022/12/06 11:12:27;;;;;;;8.48;2.88;;;6.10;99.90;;;;;;5045803;28;20028;-84
2022/12/06 11:15:18;;;;;;;5.72;3.00;;;6.10;99.90;;;;;;5051145;28;20049;-86
2022/12/06 11:17:50;;;;;;;6.38;1.80;;;6.10;99.90;;;;;;5008132;28;20052;-87
2022/12/06 11:20:31;;;;;;;4.15;1.52;;;6.10;99.90;;;;;;5030417;28;20033;-87
2022/12/06 11:23:45;;;;;;;3.40;1.10;;;6.00;99.90;;;;;;5031851;28;20041;-86
2022/12/06 11:26:36;;;;;;;2.97;1.05;;;6.00;99.90;;;;;;5007571;28;20145;-85
2022/12/06 11:29:08;;;;;;;2.95;1.48;;;6.10;99.90;;;;;;5047238;28;20032;-86
2022/12/06 11:31:53;;;;;;;3.85;1.33;;;6.20;99.90;;;;;;5026191;28;20036;-87
2022/12/06 11:34:42;;;;;;;3.47;1.98;;;6.30;99.90;;;;;;4997423;28;20076;-85
2022/12/06 11:37:21;;;;;;;3.25;1.60;;;6.50;99.90;;;;;;4996375;28;20472;-87
2022/12/06 11:39:50;;;;;;;5.47;2.05;;;6.80;99.90;;;;;;5050555;28;20032;-86
2022/12/06 11:42:25;;;;;;;3.65;1.92;;;6.90;99.90;;;;;;5041461;28;20048;-85
2022/12/06 11:45:20;;;;;;;4.40;1.73;;;7.10;99.90;;;;;;5026782;28;20041;-85
2022/12/06 11:47:47;;;;;;;2.92;1.50;;;7.20;99.90;;;;;;5022824;28;20047;-85
2022/12/06 11:50:18;;;;;;;4.57;1.90;;;7.30;99.90;;;;;;5033383;28;20037;-86
2022/12/06 11:53:02;;;;;;;6.00;1.80;;;7.40;99.90;;;;;;5020235;28;20037;-83
2022/12/06 11:55:34;;;;;;;4.35;1.75;;;7.50;99.90;;;;;;5035898;28;20024;-83
2022/12/06 11:58:07;;;;;;;2.42;1.30;;;7.50;99.90;;;;;;5023738;28;20040;-84
2022/12/06 12:00:33;;;;;;;2.63;1.45;;;7.50;99.90;;;;;;5018183;28;20030;-84
2022/12/06 12:03:00;;;;;;;3.30;1.00;;;7.50;99.90;;;;;;5033099;28;20037;-84
2022/12/06 12:05:37;;;;;;;3.35;1.10;;;7.50;99.90;;;;;;5036278;28;20495;-81
2022/12/06 12:08:13;;;;;;;5.50;1.42;;;7.60;99.90;;;;;;5004428;28;20477;-82
2022/12/06 12:10:42;;;;;;;4.32;1.42;;;7.60;99.90;;;;;;4991644;28;20441;-83
2022/12/06 12:16:09;;;;;;;3.53;1.13;;;7.50;99.90;;;;;;5024291;28;20052;-82
2022/12/06 12:18:38;;;;;;;6.53;1.75;;;7.50;99.90;;;;;;5026427;28;20045;-82
2022/12/06 12:21:06;;;;;;;2.03;1.00;;;7.40;99.90;;;;;;5026497;28;20073;-81
2022/12/06 12:23:41;;;;;;;3.78;0.90;;;7.40;99.90;;;;;;5010648;28;20037;-81
2022/12/06 12:26:15;;;;;;;6.38;2.08;;;7.50;99.90;;;;;;5017975;28;20412;-81
2022/12/06 12:29:04;;;;;;;4.03;1.65;;;7.60;99.90;;;;;;4990103;28;20040;-83
2022/12/06 12:31:30;;;;;;;5.82;2.28;;;7.70;99.90;;;;;;5037627;28;20991;-82
2022/12/06 12:34:21;;;;;;;3.47;1.35;;;7.80;99.90;;;;;;5018971;28;20048;-89
2022/12/06 12:36:51;;;;;;;14.02;9.10;;;7.80;99.90;;;;;;5006086;28;20038;-81
2022/12/06 12:39:25;;;;;;;6.22;3.92;;;7.80;99.90;;;;;;5027594;28;20037;-80
2022/12/06 12:41:51;;;;;;;3.75;2.28;;;7.80;99.90;;;;;;5030846;28;20041;-80
2022/12/06 12:44:24;;;;;;;4.60;1.83;;;7.80;99.90;;;;;;5048245;28;20407;-79
2022/12/06 12:47:14;;;;;;;;;;;7.80;99.90;;;;;;5044228;28;20498;-79
2022/12/06 12:49:40;;;;;;;3.72;1.45;;;7.80;99.90;;;;;;5002548;28;19911;-79
2022/12/06 12:52:34;;;;;;;2.20;1.00;;;7.80;99.90;;;;;;5026650;28;20033;-79
2022/12/06 12:55:23;;;;;;;2.40;1.55;;;7.80;99.90;;;;;;5023922;28;20036;-80
2022/12/06 12:57:52;;;;;;;5.97;2.17;;;7.80;99.90;;;;;;5043418;28;20040;-80
2022/12/06 13:00:44;;;;;;;2.55;1.83;;;7.70;99.90;;;;;;5051287;28;20033;-81
2022/12/06 13:03:16;;;;;;;5.88;1.60;;;7.70;99.90;;;;;;5000416;28;20052;-81
2022/12/06 13:05:45;;;;;;;3.83;1.90;;;7.70;99.90;;;;;;5027910;28;20030;-81
2022/12/06 13:08:23;;;;;;;4.68;1.20;;;7.80;99.90;;;;;;5028002;28;20030;-80
2022/12/06 13:10:53;;;;;;;3.85;1.13;;;7.80;99.90;;;;;;5026321;28;20045;-81
2022/12/06 13:13:26;;;;;;;3.70;1.40;;;7.80;99.90;;;;;;5019257;28;20052;-81
2022/12/06 13:15:55;;;;;;;6.35;1.42;;;7.80;99.90;;;;;;5026001;28;20040;-81
2022/12/06 13:18:44;;;;;;;5.22;1.42;;;7.80;99.90;;;;;;5038441;28;20049;-81
2022/12/06 13:21:24;;;;;;;5.10;1.35;;;7.80;99.90;;;;;;5023957;28;20036;-81
2022/12/06 13:23:54;;;;;;;3.15;1.20;;;7.80;99.90;;;;;;5038696;28;20037;-80
2022/12/06 13:26:30;;;;;;;2.72;1.05;;;7.80;99.90;;;;;;5025700;28;20407;-80
2022/12/06 13:29:02;;;;;;;3.65;1.40;;;7.80;99.90;;;;;;5033807;28;20368;-80
2022/12/06 13:31:35;;;;;;;3.78;1.10;;;7.80;99.90;;;;;;5040490;28;20028;-80
2022/12/06 13:34:25;;;;;;;4.10;1.38;;;7.80;99.90;;;;;;5027095;28;20049;-80
2022/12/06 13:36:52;;;;;;;4.93;1.40;;;7.80;99.90;;;;;;5044073;28;20617;-80
2022/12/06 13:39:36;;;;;;;4.63;1.00;;;7.80;99.90;;;;;;5026113;28;20029;-80
2022/12/06 13:42:22;;;;;;;2.67;0.80;;;7.80;99.90;;;;;;5026367;28;20025;-79
2022/12/06 13:44:54;;;;;;;2.35;1.10;;;7.80;99.90;;;;;;5003866;28;20029;-79
2022/12/06 13:47:26;;;;;;;2.50;0.80;;;7.90;99.90;;;;;;5013409;28;20051;-78
2022/12/06 13:50:15;;;;;;;2.13;0.57;;;7.90;99.90;;;;;;5008494;28;20029;-80
2022/12/06 13:52:41;;;;;;;4.30;1.00;;;7.80;99.90;;;;;;5022538;28;20494;-79